createdAt,value
2018-06-05T00:01:18.879Z,1007.29
2018-06-05T00:06:14.846Z,1007.19
2018-06-05T00:11:11.469Z,1007.20
2018-06-05T00:16:08.053Z,1007.25
2018-06-05T00:21:05.184Z,1007.27
2018-06-05T00:26:00.834Z,1007.19
2018-06-05T00:30:56.713Z,1007.15
2018-06-05T00:35:52.668Z,1007.19
2018-06-05T00:40:48.738Z,1007.22
2018-06-05T00:45:45.821Z,1007.07
2018-06-05T00:50:43.340Z,1007.19
2018-06-05T00:55:38.857Z,1007.17
2018-06-05T01:00:35.186Z,1007.17
2018-06-05T01:05:31.882Z,1006.96
2018-06-05T01:10:27.439Z,1006.94
2018-06-05T01:15:23.138Z,1006.87
2018-06-05T01:20:19.685Z,1006.90
2018-06-05T01:25:15.678Z,1007.01
2018-06-05T01:30:11.588Z,1007.09
2018-06-05T01:35:07.447Z,1007.05
2018-06-05T01:40:04.349Z,1007.06
2018-06-05T01:45:00.251Z,1007.07
2018-06-05T01:49:56.264Z,1006.99
2018-06-05T01:54:53.174Z,1006.96
2018-06-05T01:59:48.787Z,1006.98
2018-06-05T02:04:44.536Z,1007.01
2018-06-05T02:09:41.541Z,1007.12
2018-06-05T02:14:37.673Z,1007.12
2018-06-05T02:19:34.998Z,1007.09
2018-06-05T02:24:30.389Z,1007.05
2018-06-05T02:29:26.885Z,1007.13
2018-06-05T02:34:23.595Z,1007.07
2018-06-05T02:39:19.248Z,1007.08
2018-06-05T02:44:16.605Z,1007.09
2018-06-05T02:49:12.533Z,1007.03
2018-06-05T02:54:08.398Z,1007.05
2018-06-05T02:59:03.817Z,1007.13
2018-06-05T03:03:59.269Z,1007.12
2018-06-05T03:08:55.444Z,1007.14
2018-06-05T03:13:51.329Z,1007.14
2018-06-05T03:18:48.182Z,1007.14
2018-06-05T03:23:44.586Z,1007.11
2018-06-05T03:28:40.578Z,1007.16
2018-06-05T03:33:36.281Z,1007.26
2018-06-05T03:38:32.379Z,1007.27
2018-06-05T03:43:29.609Z,1007.28
2018-06-05T03:48:26.338Z,1007.25
2018-06-05T03:53:21.538Z,1007.30
2018-06-05T03:58:17.534Z,1007.34
2018-06-05T04:03:13.094Z,1007.30
2018-06-05T04:08:10.150Z,1007.25
2018-06-05T04:13:06.122Z,1007.41
2018-06-05T04:18:03.447Z,1007.40
2018-06-05T04:23:00.050Z,1007.38
2018-06-05T04:27:55.494Z,1007.40
2018-06-05T04:32:51.408Z,1007.44
2018-06-05T04:37:47.112Z,1007.50
2018-06-05T04:42:43.998Z,1007.56
2018-06-05T04:47:40.147Z,1007.52
2018-06-05T04:52:36.085Z,1007.56
2018-06-05T04:57:33.054Z,1007.65
2018-06-05T05:02:28.864Z,1007.70
2018-06-05T05:07:25.170Z,1007.68
2018-06-05T05:12:21.176Z,1007.65
2018-06-05T05:17:18.082Z,1007.71
2018-06-05T05:22:14.075Z,1007.83
2018-06-05T05:27:09.667Z,1007.76
2018-06-05T05:32:05.774Z,1007.70
2018-06-05T05:37:01.830Z,1007.65
2018-06-05T05:41:59.464Z,1007.77
2018-06-05T05:46:54.947Z,1007.78
2018-06-05T05:51:52.081Z,1007.80
2018-06-05T05:56:48.079Z,1007.91
2018-06-05T06:01:43.860Z,1007.84
2018-06-05T06:06:39.812Z,1007.94
2018-06-05T06:11:35.512Z,1007.91
2018-06-05T06:16:31.901Z,1008.02
2018-06-05T06:21:27.793Z,1008.12
2018-06-05T06:26:23.503Z,1008.05
2018-06-05T06:31:19.045Z,1008.05
2018-06-05T06:36:15.201Z,1008.04
2018-06-05T06:41:12.346Z,1008.13
2018-06-05T06:46:07.987Z,1008.15
2018-06-05T06:51:05.123Z,1008.21
2018-06-05T06:56:01.636Z,1008.16
2018-06-05T07:00:57.220Z,1008.24
2018-06-05T07:05:52.949Z,1008.18
2018-06-05T07:10:48.598Z,1008.25
2018-06-05T07:15:46.992Z,1008.29
2018-06-05T07:20:42.590Z,1008.31
2018-06-05T07:25:38.602Z,1008.33
2018-06-05T07:30:35.104Z,1008.36
2018-06-05T07:35:32.210Z,1008.44
2018-06-05T07:40:27.765Z,1008.48
2018-06-05T07:45:24.262Z,1008.46
2018-06-05T07:50:20.173Z,1008.49
2018-06-05T07:55:17.340Z,1008.44
2018-06-05T08:00:13.870Z,1008.48
2018-06-05T08:05:09.743Z,1008.41
2018-06-05T08:10:06.196Z,1008.36
2018-06-05T08:15:02.045Z,1008.41
2018-06-05T08:19:59.132Z,1008.41
2018-06-05T08:24:54.770Z,1008.43
2018-06-05T08:29:50.530Z,1008.47
2018-06-05T08:34:47.433Z,1008.47
2018-06-05T08:39:43.846Z,1008.53
2018-06-05T08:44:39.415Z,1008.47
2018-06-05T08:49:35.474Z,1008.46
2018-06-05T08:54:32.465Z,1008.47
2018-06-05T08:59:28.342Z,1008.51
2018-06-05T09:04:24.352Z,1008.48
2018-06-05T09:09:21.333Z,1008.53
2018-06-05T09:14:17.316Z,1008.54
2018-06-05T09:19:13.150Z,1008.60
2018-06-05T09:24:09.081Z,1008.57
2018-06-05T09:29:04.950Z,1008.54
2018-06-05T09:34:01.955Z,1008.46
2018-06-05T09:38:57.745Z,1008.63
2018-06-05T09:43:53.600Z,1008.60
2018-06-05T09:48:50.461Z,1008.52
2018-06-05T09:53:45.840Z,1008.55
2018-06-05T09:58:42.260Z,1008.69
2018-06-05T10:03:39.458Z,1008.71
2018-06-05T10:08:35.418Z,1008.72
2018-06-05T10:13:31.469Z,1008.77
2018-06-05T10:18:28.506Z,1008.76
2018-06-05T10:23:24.265Z,1008.74
2018-06-05T10:28:20.404Z,1008.68
2018-06-05T10:33:16.938Z,1008.75
2018-06-05T10:38:14.064Z,1008.66
2018-06-05T10:43:09.702Z,1008.57
2018-06-05T10:48:06.074Z,1008.45
2018-06-05T10:53:03.169Z,1008.59
2018-06-05T10:57:59.478Z,1008.53
2018-06-05T11:02:56.450Z,1008.59
2018-06-05T11:07:52.039Z,1008.52
2018-06-05T11:12:48.177Z,1008.48
2018-06-05T11:17:48.477Z,1008.51
2018-06-05T11:22:44.651Z,1008.51
2018-06-05T11:27:40.514Z,1008.60
2018-06-05T11:32:36.544Z,1008.49
2018-06-05T11:37:32.172Z,1008.44
2018-06-05T11:42:30.094Z,1008.38
2018-06-05T11:47:25.809Z,1008.47
2018-06-05T11:52:22.334Z,1008.49
2018-06-05T11:57:18.750Z,1008.34
2018-06-05T12:02:14.939Z,1008.38
2018-06-05T12:07:11.769Z,1008.34
2018-06-05T12:12:11.896Z,1008.19
2018-06-05T12:17:08.077Z,1008.14
2018-06-05T12:22:03.392Z,1008.24
2018-06-05T12:27:00.127Z,1008.14
2018-06-05T12:31:55.825Z,1008.16
2018-06-05T12:36:52.691Z,1008.19
2018-06-05T12:41:48.411Z,1008.13
2018-06-05T12:46:45.065Z,1008.22
2018-06-05T12:51:40.713Z,1008.18
2018-06-05T12:56:40.962Z,1008.03
2018-06-05T13:01:41.977Z,1008.06
2018-06-05T13:06:38.092Z,1008.07
2018-06-05T13:11:34.128Z,1008.05
2018-06-05T13:16:34.254Z,1007.98
2018-06-05T13:21:29.580Z,1008.03
2018-06-05T13:26:26.737Z,1008.02
2018-06-05T13:31:22.326Z,1007.91
2018-06-05T13:36:19.551Z,1007.87
2018-06-05T13:41:15.536Z,1007.94
2018-06-05T13:46:11.317Z,1007.92
2018-06-05T13:51:08.401Z,1007.87
2018-06-05T13:56:04.168Z,1007.77
2018-06-05T14:01:01.501Z,1007.80
2018-06-05T14:05:57.097Z,1007.75
2018-06-05T14:10:54.163Z,1007.77
2018-06-05T14:15:49.576Z,1007.79
2018-06-05T14:20:45.416Z,1007.78
2018-06-05T14:25:41.929Z,1007.83
2018-06-05T14:30:38.100Z,1007.73
2018-06-05T14:35:34.079Z,1007.63
2018-06-05T14:40:29.524Z,1007.60
2018-06-05T14:45:25.158Z,1007.56
2018-06-05T14:50:21.892Z,1007.55
2018-06-05T14:55:21.731Z,1007.48
2018-06-05T15:00:16.599Z,1007.45
2018-06-05T15:05:13.355Z,1007.40
2018-06-05T15:10:09.689Z,1007.42
2018-06-05T15:15:05.068Z,1007.30
2018-06-05T15:20:00.958Z,1007.39
2018-06-05T15:24:56.849Z,1007.32
2018-06-05T15:29:53.866Z,1007.30
2018-06-05T15:34:50.876Z,1007.22
2018-06-05T15:39:51.502Z,1007.07
2018-06-05T15:44:46.346Z,1007.15
2018-06-05T15:49:43.439Z,1007.17
2018-06-05T15:54:40.020Z,1007.14
2018-06-05T15:59:36.550Z,1007.13
2018-06-05T16:04:33.232Z,1007.18
2018-06-05T16:09:28.760Z,1007.09
2018-06-05T16:14:25.082Z,1007.04
2018-06-05T16:19:22.047Z,1007.11
2018-06-05T16:24:18.653Z,1006.96
2018-06-05T16:29:15.313Z,1006.79
2018-06-05T16:34:11.238Z,1006.81
2018-06-05T16:39:09.264Z,1006.79
2018-06-05T16:44:04.599Z,1006.74
2018-06-05T16:49:00.863Z,1006.72
2018-06-05T16:53:57.033Z,1006.70
2018-06-05T16:58:53.847Z,1006.69
2018-06-05T17:03:49.464Z,1006.72
2018-06-05T17:08:45.253Z,1006.69
2018-06-05T17:13:42.207Z,1006.66
2018-06-05T17:18:39.259Z,1006.59
2018-06-05T17:23:34.761Z,1006.60
2018-06-05T17:28:31.982Z,1006.66
2018-06-05T17:33:28.671Z,1006.58
2018-06-05T17:38:25.535Z,1006.62
2018-06-05T17:43:22.585Z,1006.60
2018-06-05T17:48:18.107Z,1006.57
2018-06-05T17:53:15.148Z,1006.58
2018-06-05T17:58:11.783Z,1006.53
2018-06-05T18:03:08.138Z,1006.67
2018-06-05T18:08:03.808Z,1006.55
2018-06-05T18:12:59.782Z,1006.61
2018-06-05T18:17:57.008Z,1006.63
2018-06-05T18:22:52.604Z,1006.48
2018-06-05T18:27:48.661Z,1006.61
2018-06-05T18:32:44.504Z,1006.58
2018-06-05T18:37:41.280Z,1006.63
2018-06-05T18:42:36.532Z,1006.64
2018-06-05T18:47:32.254Z,1006.63
2018-06-05T18:52:28.113Z,1006.69
2018-06-05T18:57:23.948Z,1006.69
2018-06-05T19:02:21.070Z,1006.81
2018-06-05T19:07:16.857Z,1006.79
2018-06-05T19:12:12.880Z,1006.84
2018-06-05T19:17:09.580Z,1006.89
2018-06-05T19:22:04.723Z,1006.94
2018-06-05T19:27:00.720Z,1006.90
2018-06-05T19:31:57.415Z,1006.87
2018-06-05T19:36:53.952Z,1007.04
2018-06-05T19:41:49.427Z,1007.09
2018-06-05T19:46:45.695Z,1007.06
2018-06-05T19:51:41.680Z,1007.11
2018-06-05T19:56:37.838Z,1007.22
2018-06-05T20:01:34.437Z,1007.25
2018-06-05T20:06:29.986Z,1007.22
2018-06-05T20:11:25.736Z,1007.22
2018-06-05T20:16:21.422Z,1007.36
2018-06-05T20:21:17.582Z,1007.36
2018-06-05T20:26:14.683Z,1007.41
2018-06-05T20:31:10.987Z,1007.46
2018-06-05T20:36:07.024Z,1007.47
2018-06-05T20:41:03.921Z,1007.45
2018-06-05T20:45:59.434Z,1007.56
2018-06-05T20:50:56.000Z,1007.50
2018-06-05T20:55:51.522Z,1007.54
2018-06-05T21:00:47.463Z,1007.53
2018-06-05T21:05:43.391Z,1007.58
2018-06-05T21:10:39.334Z,1007.52
2018-06-05T21:15:35.236Z,1007.59
2018-06-05T21:20:32.691Z,1007.63
2018-06-05T21:25:28.062Z,1007.76
2018-06-05T21:30:23.978Z,1007.65
2018-06-05T21:35:20.044Z,1007.64
2018-06-05T21:40:16.303Z,1007.63
2018-06-05T21:45:12.969Z,1007.77
2018-06-05T21:50:08.621Z,1007.76
2018-06-05T21:55:04.141Z,1007.75
2018-06-05T21:59:59.941Z,1007.78
2018-06-05T22:04:55.612Z,1007.87
2018-06-05T22:09:51.395Z,1007.85
2018-06-05T22:14:46.984Z,1007.88
2018-06-05T22:19:42.967Z,1007.87
2018-06-05T22:24:39.468Z,1007.77
2018-06-05T22:29:35.053Z,1007.84
2018-06-05T22:34:30.824Z,1007.74
2018-06-05T22:39:27.724Z,1007.74
2018-06-05T22:44:24.426Z,1007.64
2018-06-05T22:49:19.926Z,1007.64
2018-06-05T22:54:15.784Z,1007.67
2018-06-05T22:59:11.749Z,1007.57
2018-06-05T23:04:08.524Z,1007.57
2018-06-05T23:09:03.952Z,1007.61
2018-06-05T23:13:59.951Z,1007.55
2018-06-05T23:18:55.951Z,1007.59
2018-06-05T23:23:51.757Z,1007.61
2018-06-05T23:28:48.152Z,1007.61
2018-06-05T23:33:45.604Z,1007.67
2018-06-05T23:38:41.410Z,1007.64
2018-06-05T23:43:37.284Z,1007.65
2018-06-05T23:48:34.138Z,1007.62
2018-06-05T23:53:29.421Z,1007.60
2018-06-05T23:58:25.630Z,1007.68
